Wilmot, Ohio
Current Conditions -  °F | °C
As of 5:53 AM on Sunday 21 Dec 2014 (Local Time) from KPHD Reporting Station
Overcast Overcast  
Wind Chill: 30°   Ceiling: 2700
Heat Index: 30°   Visibility: 10mi
Dew Point: 24°   Wind: 0mph
Humidity: 79%   Direction: NA
Pressure: 30.31"   Gusts: NA
Location:  40.66°N, 81.63°W
Report Text: KPHD 211053Z AUTO 00000KT 10SM OVC027 M01/M04 A3031 RMK AO2 SLP273 T10111044
Loading
Personal Weather Stations






























Interactive Weather Map New forecast layout! Learn more

10-Day Weather Forecast

Advertisements
Track Severe Weather on mobile